Terminal Aerodrome Forecast
Issued by NWS Milwaukee/Sullivan, WI

Home | Current Version | Previous Version | Text Only | Print | Product List | Glossary On
Versions: 1 2 3 4 5 6 7 8 9 10 11 12 13 14 15 16 17 18 19 20 21 22 23 24 25 26 27 28 29 30 31 32 33 34 35 36 37 38 39 40 41 42 43 44 45 46 47 48 49 50
638
FTUS43 KMKX 241331 AAA
TAFMSN
TAF AMD
KMSN 241331Z 2414/2512 30005KT P6SM OVC012
     FM241700 VRB03KT P6SM OVC010
     FM242300 09006KT P6SM OVC015
     FM250100 10007KT 6SM -RASN OVC015
     FM250300 10008KT 2SM -SNRA OVC005
     FM250600 11009KT 1SM -SNRA OVC003
      TEMPO 2507/2510 1/2SM SN FG
     FM251100 09008KT 1 1/2SM RASN OVC003=

USA.gov is the U.S. government's official web portal to all federal, state and local government web resources and services.